createdAt,value
2023-01-12T06:21:09.452Z,1.60
2023-01-12T06:23:38.249Z,1.33
2023-01-12T06:26:10.540Z,1.10
2023-01-12T06:28:42.914Z,1.10
2023-01-12T06:31:14.868Z,1.20
2023-01-12T06:33:44.097Z,1.63
2023-01-12T06:36:13.058Z,1.80
2023-01-12T06:38:41.919Z,1.50
2023-01-12T06:41:33.475Z,1.40
2023-01-12T06:44:03.631Z,1.00
2023-01-12T06:46:32.455Z,1.30
2023-01-12T06:49:01.337Z,1.50
2023-01-12T06:51:30.194Z,1.43
2023-01-12T06:53:59.056Z,1.30
2023-01-12T06:56:27.725Z,1.50
2023-01-12T06:58:56.474Z,1.53
2023-01-12T07:01:27.206Z,1.20
2023-01-12T07:03:55.974Z,1.57
2023-01-12T07:06:24.690Z,1.40
2023-01-12T07:08:53.430Z,1.43
2023-01-12T07:11:22.172Z,1.73
2023-01-12T07:13:50.830Z,1.70
2023-01-12T07:16:19.522Z,1.70
2023-01-12T07:18:49.878Z,1.90
2023-01-12T07:21:19.753Z,1.67
2023-01-12T07:23:48.424Z,1.80
2023-01-12T07:26:17.170Z,1.70
2023-01-12T07:28:46.044Z,1.53
2023-01-12T07:31:14.803Z,1.67
2023-01-12T07:33:43.516Z,1.87
2023-01-12T07:36:13.663Z,1.80
2023-01-12T07:38:43.291Z,2.00
2023-01-12T07:41:34.224Z,1.63
2023-01-12T07:44:03.319Z,2.30
2023-01-12T07:46:32.035Z,1.93
2023-01-12T07:49:00.746Z,2.00
2023-01-12T07:51:31.793Z,1.70
2023-01-12T07:54:00.623Z,1.70
2023-01-12T07:56:29.292Z,1.30
2023-01-12T07:58:58.100Z,1.23
2023-01-12T08:01:26.943Z,1.40
2023-01-12T08:03:55.697Z,1.47
2023-01-12T08:06:24.444Z,1.57
2023-01-12T08:08:55.823Z,1.53
2023-01-12T08:11:24.732Z,1.70
2023-01-12T08:13:56.224Z,1.73
2023-01-12T08:16:29.882Z,1.97
2023-01-12T08:19:02.567Z,1.27
2023-01-12T08:21:34.508Z,1.80
2023-01-12T08:24:07.247Z,1.80
2023-01-12T08:26:39.785Z,1.70
2023-01-12T08:29:13.131Z,1.75
2023-01-12T08:31:42.561Z,1.40
2023-01-12T08:34:11.639Z,2.47
2023-01-12T08:36:44.050Z,2.10
2023-01-12T08:39:14.755Z,1.70
2023-01-12T08:41:45.050Z,1.83
2023-01-12T08:44:13.736Z,2.00
2023-01-12T08:46:49.329Z,2.03
2023-01-12T08:49:20.315Z,2.03
2023-01-12T08:51:49.313Z,1.70
2023-01-12T08:54:21.059Z,1.70
2023-01-12T08:56:50.517Z,1.57
2023-01-12T08:59:20.273Z,1.70
2023-01-12T09:01:49.428Z,1.83
2023-01-12T09:04:24.763Z,1.50
2023-01-12T09:06:53.953Z,2.03
2023-01-12T09:09:24.260Z,2.20
2023-01-12T09:11:52.888Z,1.83
2023-01-12T09:14:21.734Z,2.47
2023-01-12T09:16:51.217Z,3.00
2023-01-12T09:19:20.224Z,1.65
2023-01-12T09:36:42.880Z,1.60
2023-01-12T09:39:26.946Z,1.43
2023-01-12T09:42:17.518Z,1.70
2023-01-12T09:45:06.497Z,1.80
2023-01-12T09:47:40.226Z,1.43
2023-01-12T09:50:12.844Z,1.30
2023-01-12T09:52:45.336Z,1.70
2023-01-12T09:55:17.726Z,1.60
2023-01-12T09:58:31.394Z,2.17
2023-01-12T10:01:02.815Z,2.80
2023-01-12T10:03:35.696Z,3.10
2023-01-12T10:06:04.687Z,3.23
2023-01-12T10:08:37.324Z,3.00
2023-01-12T10:11:18.484Z,3.47
2023-01-12T10:14:14.768Z,2.40
